createdAt,value
2019-01-23T00:00:40.979Z,63.17
2019-01-23T00:01:30.940Z,56.10
2019-01-23T00:02:06.610Z,58.67
2019-01-23T00:02:42.087Z,61.73
2019-01-23T00:03:17.804Z,59.20
2019-01-23T00:03:53.255Z,62.37
2019-01-23T00:04:28.680Z,59.90
2019-01-23T00:05:04.393Z,61.07
2019-01-23T00:05:39.821Z,59.93
2019-01-23T00:06:15.336Z,57.40
2019-01-23T00:06:51.067Z,62.93
2019-01-23T00:07:26.506Z,60.90
2019-01-23T00:08:01.979Z,60.73
2019-01-23T00:08:37.411Z,60.00
2019-01-23T00:09:13.102Z,61.83
2019-01-23T00:09:48.811Z,63.37
2019-01-23T00:10:24.642Z,58.83
2019-01-23T00:11:00.644Z,58.10
2019-01-23T00:11:36.631Z,61.33
2019-01-23T00:12:12.092Z,60.13
2019-01-23T00:12:47.525Z,59.80
2019-01-23T00:13:23.010Z,59.70
2019-01-23T00:13:58.428Z,61.30
2019-01-23T00:14:33.854Z,51.17
2019-01-23T00:15:09.974Z,58.87
2019-01-23T00:15:46.318Z,61.80
2019-01-23T00:16:21.745Z,57.97
2019-01-23T00:16:57.486Z,57.73
2019-01-23T00:17:32.920Z,61.20
2019-01-23T00:18:08.699Z,64.20
2019-01-23T00:18:44.158Z,56.37
2019-01-23T00:19:19.582Z,57.80
2019-01-23T00:19:55.010Z,62.23
2019-01-23T00:20:30.715Z,63.97
2019-01-23T00:21:06.712Z,60.57
2019-01-23T00:21:42.445Z,63.07
2019-01-23T00:22:18.130Z,65.27
2019-01-23T00:22:53.807Z,59.33
2019-01-23T00:23:29.670Z,59.80
2019-01-23T00:24:05.300Z,55.50
2019-01-23T00:24:41.019Z,59.40
2019-01-23T00:25:16.796Z,59.07
2019-01-23T00:25:52.223Z,58.07
2019-01-23T00:26:27.915Z,58.97
2019-01-23T00:27:03.360Z,57.00
2019-01-23T00:27:39.090Z,59.37
2019-01-23T00:28:14.558Z,62.87
2019-01-23T00:28:49.996Z,55.43
2019-01-23T00:29:25.441Z,59.90
2019-01-23T00:30:01.204Z,56.97
2019-01-23T00:30:36.629Z,59.13
2019-01-23T00:31:12.062Z,57.70
2019-01-23T00:31:47.482Z,63.50
2019-01-23T00:32:22.909Z,57.73
2019-01-23T00:32:58.633Z,59.67
2019-01-23T00:33:34.107Z,60.27
2019-01-23T00:34:09.560Z,62.40
2019-01-23T00:34:45.006Z,57.73
2019-01-23T00:35:20.730Z,58.20
2019-01-23T00:35:56.182Z,58.33
2019-01-23T00:36:31.899Z,55.43
2019-01-23T00:37:07.655Z,57.73
2019-01-23T00:37:43.083Z,62.30
2019-01-23T00:38:19.814Z,60.37
2019-01-23T00:38:55.532Z,58.00
2019-01-23T00:39:30.975Z,59.23
2019-01-23T00:40:07.534Z,59.13
2019-01-23T00:40:42.984Z,58.07
2019-01-23T00:41:18.471Z,52.93
2019-01-23T00:41:53.905Z,60.77
2019-01-23T00:42:29.352Z,57.53
2019-01-23T00:43:05.117Z,55.87
2019-01-23T00:43:40.853Z,59.40
2019-01-23T00:44:16.280Z,57.03
2019-01-23T00:44:51.746Z,58.23
2019-01-23T00:45:27.189Z,56.10
2019-01-23T00:46:02.629Z,59.53
2019-01-23T00:46:38.139Z,54.97
2019-01-23T00:47:13.920Z,54.43
2019-01-23T00:47:49.770Z,53.23
2019-01-23T00:48:25.779Z,56.07
2019-01-23T00:49:01.230Z,56.70
2019-01-23T00:49:36.675Z,56.83
2019-01-23T00:50:13.305Z,57.57
2019-01-23T00:50:49.054Z,57.70
2019-01-23T00:51:24.501Z,57.20
2019-01-23T00:51:59.961Z,59.27
2019-01-23T00:52:35.394Z,60.07
2019-01-23T00:53:10.850Z,55.93
2019-01-23T00:53:46.329Z,57.30
2019-01-23T00:54:21.774Z,62.83
2019-01-23T00:54:57.216Z,55.93
2019-01-23T00:55:32.641Z,54.10
2019-01-23T00:56:08.687Z,57.53
2019-01-23T00:56:44.669Z,54.93
2019-01-23T00:57:20.113Z,58.77
2019-01-23T00:57:55.547Z,59.43
2019-01-23T00:58:31.343Z,55.10
2019-01-23T00:59:06.907Z,57.77
2019-01-23T00:59:42.589Z,59.03
2019-01-23T01:00:20.989Z,57.17
2019-01-23T01:00:56.407Z,52.90
2019-01-23T01:01:31.878Z,55.33
2019-01-23T01:02:07.867Z,55.23
2019-01-23T01:02:43.587Z,53.23
2019-01-23T01:03:19.337Z,58.27
2019-01-23T01:03:54.822Z,55.50
2019-01-23T01:04:30.248Z,54.47
2019-01-23T01:05:06.458Z,50.13
2019-01-23T01:05:41.897Z,57.33
2019-01-23T01:06:17.323Z,60.37
2019-01-23T01:06:53.297Z,58.60
2019-01-23T01:07:29.307Z,57.77
2019-01-23T01:08:05.150Z,55.20
2019-01-23T01:08:40.613Z,55.60
2019-01-23T01:09:16.054Z,58.23
2019-01-23T01:09:51.761Z,59.73
2019-01-23T01:10:27.753Z,55.17
2019-01-23T01:11:03.444Z,55.03
2019-01-23T01:11:38.866Z,51.17
2019-01-23T01:12:14.728Z,54.90
2019-01-23T01:12:50.165Z,56.87
2019-01-23T01:13:25.619Z,54.53
2019-01-23T01:14:01.109Z,58.20
2019-01-23T01:14:36.647Z,55.30
2019-01-23T01:15:13.544Z,55.73
2019-01-23T01:15:49.181Z,51.80
2019-01-23T01:16:24.630Z,51.10
2019-01-23T01:17:00.067Z,54.00
2019-01-23T01:17:35.513Z,55.57
2019-01-23T01:18:11.214Z,55.57
2019-01-23T01:18:46.963Z,52.87
2019-01-23T01:19:22.398Z,52.33
2019-01-23T01:19:57.829Z,57.17
2019-01-23T01:20:33.510Z,52.90
2019-01-23T01:21:08.996Z,50.90
2019-01-23T01:21:44.426Z,55.10
2019-01-23T01:22:19.872Z,55.27
2019-01-23T01:22:55.429Z,55.10
2019-01-23T01:23:31.152Z,57.73
2019-01-23T01:24:06.899Z,55.17
2019-01-23T01:24:42.324Z,53.07
2019-01-23T01:25:18.386Z,54.17
2019-01-23T01:25:53.851Z,58.10
2019-01-23T01:26:29.640Z,56.03
2019-01-23T01:27:05.550Z,57.17
2019-01-23T01:27:41.268Z,56.17
2019-01-23T01:28:17.004Z,55.58
2019-01-23T01:28:56.139Z,51.93
2019-01-23T01:29:30.069Z,53.80
2019-01-23T01:30:08.662Z,58.83
2019-01-23T01:30:44.161Z,53.07
2019-01-23T01:31:19.889Z,58.65
2019-01-23T01:31:55.421Z,58.50
2019-01-23T01:32:30.863Z,55.53
2019-01-23T01:33:06.339Z,49.00
2019-01-23T01:33:41.823Z,54.50
2019-01-23T01:34:17.508Z,57.00
2019-01-23T01:34:53.218Z,54.20
2019-01-23T01:35:28.668Z,58.60
2019-01-23T01:36:04.124Z,55.70
2019-01-23T01:36:39.922Z,51.97
2019-01-23T01:37:15.377Z,56.50
2019-01-23T01:37:51.062Z,55.37
2019-01-23T01:38:26.489Z,52.27
2019-01-23T01:39:01.947Z,55.83
2019-01-23T01:39:37.416Z,53.47
2019-01-23T01:40:13.967Z,55.83
2019-01-23T01:40:49.650Z,55.10
2019-01-23T01:41:25.094Z,53.30
2019-01-23T01:42:00.798Z,52.73
2019-01-23T01:42:36.250Z,53.53
2019-01-23T01:43:11.961Z,54.53
2019-01-23T01:43:47.430Z,56.23
2019-01-23T01:44:22.872Z,51.30
2019-01-23T01:44:58.304Z,51.10
2019-01-23T01:45:33.749Z,56.43
2019-01-23T01:46:09.282Z,52.60
2019-01-23T01:46:45.131Z,52.77
2019-01-23T01:47:20.525Z,55.10
2019-01-23T01:47:56.270Z,51.50
2019-01-23T01:48:31.695Z,53.73
2019-01-23T01:49:07.512Z,51.57
2019-01-23T01:49:42.957Z,55.23
2019-01-23T01:50:21.860Z,55.33
2019-01-23T01:50:57.577Z,52.23
2019-01-23T01:51:33.269Z,50.50
2019-01-23T01:52:08.709Z,53.90
2019-01-23T01:52:44.131Z,53.37
2019-01-23T01:53:19.561Z,55.17
2019-01-23T01:53:55.578Z,53.87
2019-01-23T01:54:31.267Z,53.03
2019-01-23T01:55:08.082Z,53.37
2019-01-23T01:55:43.834Z,50.88
2019-01-23T01:56:19.266Z,51.77
2019-01-23T01:56:55.253Z,56.37
2019-01-23T01:57:30.687Z,54.33
2019-01-23T01:58:10.016Z,55.17
2019-01-23T01:58:43.876Z,51.60
2019-01-23T01:59:19.916Z,52.65
2019-01-23T01:59:55.729Z,50.83
2019-01-23T02:00:31.447Z,54.50
2019-01-23T02:01:07.197Z,54.73
2019-01-23T02:01:42.921Z,50.10
2019-01-23T02:02:18.344Z,49.83
2019-01-23T02:02:53.778Z,51.27
2019-01-23T02:03:30.349Z,56.80
2019-01-23T02:04:05.945Z,50.10
2019-01-23T02:04:41.631Z,54.17
2019-01-23T02:05:17.843Z,53.17
2019-01-23T02:05:53.262Z,51.43
2019-01-23T02:06:28.711Z,52.77
2019-01-23T02:07:04.342Z,54.53
2019-01-23T02:07:40.033Z,55.03
2019-01-23T02:08:15.774Z,53.97
2019-01-23T02:08:51.278Z,51.70
2019-01-23T02:09:26.758Z,54.67
2019-01-23T02:10:02.445Z,56.20
2019-01-23T02:10:37.911Z,50.60
2019-01-23T02:11:13.360Z,51.03
2019-01-23T02:11:48.885Z,55.73
2019-01-23T02:12:24.331Z,52.23
2019-01-23T02:12:59.762Z,54.03
2019-01-23T02:13:35.195Z,51.93
2019-01-23T02:14:10.670Z,49.03
2019-01-23T02:14:46.123Z,53.07
2019-01-23T02:15:21.603Z,53.20
2019-01-23T02:15:57.623Z,51.10
2019-01-23T02:16:33.330Z,52.97
2019-01-23T02:17:08.879Z,54.93
2019-01-23T02:17:44.496Z,51.27
2019-01-23T02:18:19.939Z,52.80
2019-01-23T02:18:55.364Z,54.23
2019-01-23T02:19:30.848Z,53.90
2019-01-23T02:20:09.209Z,55.03
2019-01-23T02:20:44.666Z,52.30
2019-01-23T02:21:20.436Z,51.43
2019-01-23T02:21:55.874Z,51.17
2019-01-23T02:22:31.585Z,57.38
2019-01-23T02:23:07.026Z,49.70
2019-01-23T02:23:42.525Z,55.63
2019-01-23T02:24:18.325Z,57.30
2019-01-23T02:24:54.069Z,47.27
2019-01-23T02:25:29.501Z,55.47
2019-01-23T02:26:04.938Z,56.43
2019-01-23T02:26:40.392Z,52.43
2019-01-23T02:27:15.915Z,50.37
2019-01-23T02:27:51.608Z,48.73
2019-01-23T02:28:27.053Z,55.23
2019-01-23T02:29:09.320Z,53.23
2019-01-23T02:29:39.955Z,53.53
2019-01-23T02:30:17.027Z,54.57
2019-01-23T02:30:52.717Z,52.77
2019-01-23T02:31:28.467Z,51.33
2019-01-23T02:32:04.149Z,53.00
2019-01-23T02:32:39.594Z,52.87
2019-01-23T02:33:15.036Z,47.33
2019-01-23T02:33:50.501Z,54.87
2019-01-23T02:34:26.191Z,51.30
2019-01-23T02:35:01.726Z,52.20
2019-01-23T02:35:37.184Z,52.90
2019-01-23T02:36:12.716Z,52.03
2019-01-23T02:36:48.412Z,53.00
2019-01-23T02:37:23.841Z,54.00
2019-01-23T02:37:59.270Z,52.63
2019-01-23T02:38:34.708Z,53.10
2019-01-23T02:39:10.421Z,54.83
2019-01-23T02:39:45.897Z,51.47
2019-01-23T02:40:22.656Z,46.00
2019-01-23T02:40:58.705Z,49.27
2019-01-23T02:41:34.138Z,50.97
2019-01-23T02:42:09.837Z,46.83
2019-01-23T02:42:45.261Z,47.87
2019-01-23T02:43:20.688Z,47.37
2019-01-23T02:43:56.118Z,51.00
2019-01-23T02:44:31.549Z,54.47
2019-01-23T02:45:07.272Z,54.10
2019-01-23T02:45:42.727Z,48.20
2019-01-23T02:46:18.710Z,50.28
2019-01-23T02:46:54.410Z,49.07
2019-01-23T02:47:29.862Z,50.10
2019-01-23T02:48:05.941Z,50.43
2019-01-23T02:48:41.645Z,51.27
2019-01-23T02:49:17.343Z,48.53
2019-01-23T02:49:53.140Z,50.70
2019-01-23T02:50:28.610Z,49.77
2019-01-23T02:51:04.067Z,51.20
2019-01-23T02:51:39.551Z,48.60
2019-01-23T02:52:15.224Z,50.23
2019-01-23T02:52:50.636Z,47.53
2019-01-23T02:53:26.074Z,50.67
2019-01-23T02:54:01.519Z,50.93
2019-01-23T02:54:37.210Z,51.57
2019-01-23T02:55:12.703Z,51.17
2019-01-23T02:55:48.141Z,48.30
2019-01-23T02:56:23.854Z,51.33
2019-01-23T02:56:59.622Z,50.13
2019-01-23T02:57:35.064Z,50.60
2019-01-23T02:58:10.893Z,49.83
2019-01-23T02:58:46.353Z,52.87
2019-01-23T02:59:21.780Z,49.47
2019-01-23T02:59:57.244Z,50.50
2019-01-23T03:00:34.025Z,50.97
2019-01-23T03:01:09.634Z,46.77
2019-01-23T03:01:45.127Z,50.70
2019-01-23T03:02:20.536Z,51.00
2019-01-23T03:02:56.240Z,53.47
2019-01-23T03:03:31.994Z,48.20
2019-01-23T03:04:07.479Z,49.33
2019-01-23T03:04:42.984Z,50.27
2019-01-23T03:05:19.556Z,48.90
2019-01-23T03:05:54.967Z,52.67
2019-01-23T03:06:30.447Z,52.50
2019-01-23T03:07:05.928Z,47.47
2019-01-23T03:07:41.502Z,50.00
2019-01-23T03:08:16.958Z,48.17
2019-01-23T03:08:52.486Z,52.77
2019-01-23T03:09:27.928Z,49.07
2019-01-23T03:10:03.445Z,51.40
2019-01-23T03:10:38.988Z,50.87
2019-01-23T03:11:14.442Z,52.70
2019-01-23T03:11:50.447Z,48.33
2019-01-23T03:12:25.875Z,47.30
2019-01-23T03:13:01.637Z,50.30
2019-01-23T03:13:37.160Z,53.80
2019-01-23T03:14:12.897Z,50.43
2019-01-23T03:14:48.347Z,52.00
2019-01-23T03:15:24.076Z,50.07
2019-01-23T03:15:59.854Z,52.07
2019-01-23T03:16:35.550Z,45.93
2019-01-23T03:17:11.081Z,54.23
2019-01-23T03:17:46.591Z,51.17
2019-01-23T03:18:22.157Z,50.27
2019-01-23T03:18:57.594Z,49.67
2019-01-23T03:19:33.381Z,50.00
2019-01-23T03:20:11.040Z,50.47
2019-01-23T03:20:46.908Z,51.23
2019-01-23T03:21:22.955Z,48.20
2019-01-23T03:21:58.412Z,54.60
2019-01-23T03:22:33.949Z,48.47
2019-01-23T03:23:09.665Z,48.43
2019-01-23T03:23:45.253Z,53.83
2019-01-23T03:24:21.005Z,50.30
2019-01-23T03:24:57.023Z,55.17
2019-01-23T03:25:32.613Z,48.67
2019-01-23T03:26:08.481Z,53.17
2019-01-23T03:26:43.939Z,50.13
2019-01-23T03:27:19.362Z,48.80
2019-01-23T03:27:54.786Z,50.90
2019-01-23T03:28:30.228Z,44.57
2019-01-23T03:29:05.687Z,50.63
2019-01-23T03:29:41.569Z,45.93
2019-01-23T03:30:19.446Z,48.47
2019-01-23T03:30:54.924Z,48.37
2019-01-23T03:31:30.361Z,51.40
2019-01-23T03:32:05.923Z,53.73
2019-01-23T03:32:41.391Z,50.60
2019-01-23T03:33:16.854Z,48.67
2019-01-23T03:33:52.270Z,50.40
2019-01-23T03:34:28.260Z,49.83
2019-01-23T03:35:03.829Z,53.10
2019-01-23T03:35:39.375Z,48.67
2019-01-23T03:36:14.838Z,48.60
2019-01-23T03:36:50.534Z,51.00
2019-01-23T03:37:25.987Z,52.40
2019-01-23T03:38:01.432Z,50.07
2019-01-23T03:38:36.860Z,50.67
2019-01-23T03:39:12.635Z,47.57
2019-01-23T03:39:48.066Z,55.07
2019-01-23T03:40:23.576Z,48.47
2019-01-23T03:40:59.010Z,50.57
2019-01-23T03:41:35.001Z,54.27
2019-01-23T03:42:10.737Z,49.60
2019-01-23T03:42:46.175Z,51.67
2019-01-23T03:43:21.604Z,50.33
2019-01-23T03:43:57.049Z,48.60
2019-01-23T03:44:32.490Z,49.23
2019-01-23T03:45:09.523Z,43.97
2019-01-23T03:45:45.047Z,51.70
2019-01-23T03:46:20.481Z,49.13
2019-01-23T03:46:55.915Z,46.40
2019-01-23T03:47:31.355Z,50.30
2019-01-23T03:48:06.926Z,48.13
2019-01-23T03:48:42.465Z,47.57
2019-01-23T03:49:18.273Z,50.33
2019-01-23T03:49:53.694Z,46.60
2019-01-23T03:50:29.136Z,46.50
2019-01-23T03:51:04.604Z,53.60
2019-01-23T03:51:40.035Z,50.43
2019-01-23T03:52:15.666Z,47.87
2019-01-23T03:52:51.175Z,48.27
2019-01-23T03:53:26.612Z,49.93
2019-01-23T03:54:02.077Z,49.07
2019-01-23T03:54:37.572Z,52.90
2019-01-23T03:55:13.679Z,54.43
2019-01-23T03:55:49.135Z,52.80
2019-01-23T03:56:24.889Z,48.23
2019-01-23T03:57:00.453Z,45.77
2019-01-23T03:57:35.962Z,54.03
2019-01-23T03:58:11.719Z,49.40
2019-01-23T03:58:47.390Z,49.60
2019-01-23T03:59:23.076Z,48.00
2019-01-23T03:59:58.773Z,47.43
2019-01-23T04:00:34.206Z,50.73
2019-01-23T04:01:09.982Z,50.43
2019-01-23T04:01:45.710Z,47.77
2019-01-23T04:02:21.500Z,50.93
2019-01-23T04:02:57.188Z,48.93
2019-01-23T04:03:32.621Z,48.47
2019-01-23T04:04:08.112Z,49.77
2019-01-23T04:04:43.648Z,48.60
2019-01-23T04:05:19.092Z,48.20
2019-01-23T04:05:55.058Z,49.63
2019-01-23T04:06:30.494Z,50.67
2019-01-23T04:07:05.929Z,50.67
2019-01-23T04:07:41.484Z,52.17
2019-01-23T04:08:16.934Z,47.07
2019-01-23T04:08:52.390Z,51.30
2019-01-23T04:09:27.921Z,48.97
2019-01-23T04:10:03.581Z,54.40
2019-01-23T04:10:39.066Z,51.80
2019-01-23T04:11:14.566Z,49.90
2019-01-23T04:11:50.456Z,54.77
2019-01-23T04:12:25.894Z,50.13
2019-01-23T04:13:01.382Z,50.03
2019-01-23T04:13:37.065Z,47.10
2019-01-23T04:14:13.210Z,52.63
2019-01-23T04:14:48.662Z,49.93
2019-01-23T04:15:24.110Z,52.40
2019-01-23T04:15:59.809Z,51.37
2019-01-23T04:16:35.623Z,49.17
2019-01-23T04:17:11.364Z,49.87
2019-01-23T04:17:47.168Z,54.47
2019-01-23T04:18:22.619Z,52.70
2019-01-23T04:18:58.044Z,52.93
2019-01-23T04:19:33.469Z,49.93
2019-01-23T04:20:12.293Z,46.83
2019-01-23T04:20:47.774Z,54.53
2019-01-23T04:21:23.496Z,50.13
2019-01-23T04:21:58.928Z,51.70
2019-01-23T04:22:34.376Z,50.60
2019-01-23T04:23:10.179Z,50.93
2019-01-23T04:23:45.668Z,54.53
2019-01-23T04:24:21.097Z,50.03
2019-01-23T04:24:56.776Z,53.40
2019-01-23T04:25:32.218Z,48.80
2019-01-23T04:26:07.716Z,48.40
2019-01-23T04:26:43.492Z,54.10
2019-01-23T04:27:19.511Z,51.37
2019-01-23T04:27:55.291Z,52.97
2019-01-23T04:28:30.736Z,51.73
2019-01-23T04:29:06.235Z,51.27
2019-01-23T04:29:41.822Z,51.67
2019-01-23T04:30:19.831Z,47.90
2019-01-23T04:30:55.579Z,49.48
2019-01-23T04:31:31.094Z,52.40
2019-01-23T04:32:06.853Z,48.05
2019-01-23T04:32:42.466Z,52.17
2019-01-23T04:33:17.944Z,49.97
2019-01-23T04:33:53.675Z,51.17
2019-01-23T04:34:29.125Z,49.03
2019-01-23T04:35:05.313Z,48.47
2019-01-23T04:35:40.827Z,51.07
2019-01-23T04:36:16.362Z,50.47
2019-01-23T04:36:52.052Z,50.47
2019-01-23T04:37:27.779Z,52.55
2019-01-23T04:38:03.266Z,51.30
2019-01-23T04:38:39.050Z,50.95
2019-01-23T04:39:14.771Z,48.60
2019-01-23T04:39:50.645Z,53.63
2019-01-23T04:40:26.357Z,48.20
2019-01-23T04:41:01.790Z,49.70
2019-01-23T04:41:37.343Z,51.30
2019-01-23T04:42:12.929Z,49.67
2019-01-23T04:42:48.398Z,49.07
2019-01-23T04:43:24.539Z,50.83
2019-01-23T04:44:00.273Z,47.40
2019-01-23T04:44:36.270Z,50.90
2019-01-23T04:45:12.827Z,51.90
2019-01-23T04:45:48.540Z,48.73
2019-01-23T04:46:23.972Z,48.53
2019-01-23T04:46:59.399Z,48.57
2019-01-23T04:47:34.985Z,49.27
2019-01-23T04:48:10.835Z,51.80
2019-01-23T04:48:46.696Z,49.47
2019-01-23T04:49:22.115Z,47.50
2019-01-23T04:49:57.557Z,49.93
2019-01-23T04:50:34.630Z,53.83
2019-01-23T04:51:34.984Z,54.27
2019-01-23T04:52:15.970Z,53.67
2019-01-23T04:53:12.317Z,54.00
2019-01-23T04:53:49.039Z,54.57
2019-01-23T04:54:24.566Z,54.03
2019-01-23T04:55:00.262Z,55.50
2019-01-23T04:55:37.845Z,53.80
2019-01-23T04:56:13.839Z,54.08
2019-01-23T04:56:49.573Z,60.13
2019-01-23T04:57:25.005Z,58.17
2019-01-23T04:58:00.469Z,59.17
2019-01-23T04:58:36.540Z,60.63
2019-01-23T04:59:12.309Z,63.65
2019-01-23T04:59:48.069Z,63.53
2019-01-23T05:00:25.272Z,65.67
2019-01-23T05:01:01.051Z,62.30
2019-01-23T05:01:36.524Z,67.20
2019-01-23T05:02:12.058Z,59.13
2019-01-23T05:02:47.797Z,68.17
2019-01-23T05:03:23.578Z,61.55
2019-01-23T05:03:59.033Z,63.93
2019-01-23T05:04:34.782Z,66.55
2019-01-23T05:05:10.647Z,66.27
2019-01-23T05:05:46.414Z,64.67
2019-01-23T05:06:22.148Z,62.58
2019-01-23T05:06:57.864Z,65.63
2019-01-23T05:07:33.646Z,63.68
2019-01-23T05:08:09.422Z,69.20
2019-01-23T05:08:44.891Z,63.03
2019-01-23T05:09:20.894Z,66.10
2019-01-23T05:09:56.630Z,69.63
2019-01-23T05:10:32.346Z,65.33
2019-01-23T05:11:07.837Z,64.30
2019-01-23T05:11:43.313Z,76.80
2019-01-23T05:12:18.789Z,66.57
2019-01-23T05:12:54.498Z,71.23
2019-01-23T05:13:30.222Z,71.43
2019-01-23T05:14:06.061Z,66.70
2019-01-23T05:14:41.839Z,73.65
2019-01-23T05:15:17.593Z,64.70
2019-01-23T05:15:53.087Z,64.07
2019-01-23T05:16:28.794Z,67.07
2019-01-23T05:17:04.493Z,61.77
2019-01-23T05:17:39.944Z,66.37
2019-01-23T05:18:15.703Z,58.47
2019-01-23T05:18:51.161Z,58.57
2019-01-23T05:19:26.922Z,62.40
2019-01-23T05:20:02.347Z,57.87
2019-01-23T05:20:37.866Z,61.63
2019-01-23T05:21:13.985Z,61.27
2019-01-23T05:21:49.619Z,59.77
2019-01-23T05:22:25.067Z,57.47
2019-01-23T05:23:00.548Z,55.17
2019-01-23T05:23:36.075Z,55.70
2019-01-23T05:24:11.621Z,55.00
2019-01-23T05:24:47.084Z,61.67
2019-01-23T05:25:22.878Z,54.63
2019-01-23T05:25:58.306Z,56.70
2019-01-23T05:26:34.772Z,56.07
2019-01-23T05:27:10.340Z,52.10
2019-01-23T05:27:45.825Z,54.03
2019-01-23T05:28:21.552Z,50.83
2019-01-23T05:28:56.993Z,54.03
2019-01-23T05:29:32.425Z,49.50
2019-01-23T05:30:11.872Z,52.03
2019-01-23T05:30:47.442Z,49.63
2019-01-23T05:31:22.857Z,53.50
2019-01-23T05:31:58.315Z,52.80
2019-01-23T05:32:34.012Z,49.83
2019-01-23T05:33:09.544Z,50.00
2019-01-23T05:33:45.101Z,54.30
2019-01-23T05:34:20.542Z,50.93
2019-01-23T05:34:56.226Z,52.73
2019-01-23T05:35:31.674Z,47.53
2019-01-23T05:36:07.326Z,53.57
2019-01-23T05:36:42.768Z,49.40
2019-01-23T05:37:18.729Z,46.83
2019-01-23T05:37:54.164Z,48.97
2019-01-23T05:38:29.766Z,53.00
2019-01-23T05:39:08.282Z,50.87
2019-01-23T05:39:44.944Z,48.97
2019-01-23T05:40:20.501Z,53.00
2019-01-23T05:40:56.255Z,50.87
2019-01-23T05:41:32.006Z,45.40
2019-01-23T05:42:07.733Z,47.20
2019-01-23T05:42:43.185Z,52.17
2019-01-23T05:43:18.643Z,50.13
2019-01-23T05:43:54.076Z,50.07
2019-01-23T05:44:29.584Z,49.40
2019-01-23T05:45:05.928Z,52.80
2019-01-23T05:45:41.693Z,48.37
2019-01-23T05:46:17.157Z,51.13
2019-01-23T05:46:52.586Z,50.43
2019-01-23T05:47:28.017Z,53.20
2019-01-23T05:48:03.449Z,53.13
2019-01-23T05:48:39.031Z,52.27
2019-01-23T05:49:14.515Z,46.00
2019-01-23T05:49:49.953Z,47.97
2019-01-23T05:50:25.377Z,49.77
2019-01-23T05:51:01.104Z,51.47
2019-01-23T05:51:36.611Z,52.97
2019-01-23T05:52:12.460Z,52.03
2019-01-23T05:52:49.021Z,51.63
2019-01-23T05:53:24.518Z,49.83
2019-01-23T05:53:59.984Z,52.07
2019-01-23T05:54:35.449Z,50.87
2019-01-23T05:55:12.243Z,51.83
2019-01-23T05:55:47.718Z,48.23
2019-01-23T05:56:23.169Z,46.97
2019-01-23T05:56:58.969Z,50.57
2019-01-23T05:57:34.435Z,53.30
2019-01-23T05:58:11.960Z,50.10
2019-01-23T05:58:47.747Z,52.70
2019-01-23T05:59:23.182Z,53.03
2019-01-23T06:00:02.382Z,53.70
2019-01-23T06:00:36.066Z,50.33
2019-01-23T06:01:11.853Z,47.73
2019-01-23T06:01:47.642Z,50.03
2019-01-23T06:02:23.072Z,49.60
2019-01-23T06:02:58.512Z,53.87
2019-01-23T06:03:34.153Z,51.27
2019-01-23T06:04:10.050Z,52.27
2019-01-23T06:04:46.464Z,50.83
2019-01-23T06:05:22.311Z,50.17
2019-01-23T06:05:58.085Z,50.63
2019-01-23T06:06:33.804Z,52.73
2019-01-23T06:07:09.928Z,51.92
2019-01-23T06:07:45.723Z,51.27
2019-01-23T06:08:21.748Z,56.07
2019-01-23T06:08:57.232Z,49.93
2019-01-23T06:09:32.977Z,51.57
2019-01-23T06:10:08.857Z,57.57
2019-01-23T06:10:44.406Z,51.17
2019-01-23T06:11:20.816Z,52.65
2019-01-23T06:11:56.608Z,47.20
2019-01-23T06:12:32.057Z,52.30
2019-01-23T06:13:07.538Z,52.90
2019-01-23T06:13:43.069Z,50.60
2019-01-23T06:14:18.594Z,50.03
2019-01-23T06:14:54.326Z,54.90
2019-01-23T06:15:29.779Z,49.13
2019-01-23T06:16:05.268Z,52.50
2019-01-23T06:16:40.772Z,51.13
2019-01-23T06:17:16.268Z,53.00
2019-01-23T06:17:51.710Z,50.30
2019-01-23T06:18:27.142Z,51.57
2019-01-23T06:19:02.614Z,52.93
2019-01-23T06:19:38.154Z,52.50
2019-01-23T06:20:16.245Z,47.87
2019-01-23T06:20:51.706Z,48.77
2019-01-23T06:21:27.144Z,49.73
2019-01-23T06:22:02.904Z,50.77
2019-01-23T06:22:38.489Z,52.83
2019-01-23T06:23:13.981Z,53.00
2019-01-23T06:23:49.436Z,52.20
2019-01-23T06:24:24.902Z,54.70
2019-01-23T06:25:00.351Z,48.00
2019-01-23T06:25:35.840Z,48.33
2019-01-23T06:26:11.340Z,54.33
2019-01-23T06:26:47.127Z,55.90
2019-01-23T06:27:22.573Z,50.97
2019-01-23T06:27:58.584Z,54.95
2019-01-23T06:28:34.370Z,52.17
2019-01-23T06:29:09.994Z,50.23
2019-01-23T06:29:45.482Z,51.20
2019-01-23T06:30:25.657Z,50.10
2019-01-23T06:31:01.098Z,52.10
2019-01-23T06:31:37.354Z,48.57
2019-01-23T06:32:12.894Z,54.30
2019-01-23T06:32:48.375Z,48.33
2019-01-23T06:33:24.139Z,52.77
2019-01-23T06:33:59.846Z,50.37
2019-01-23T06:34:35.309Z,61.27
2019-01-23T06:35:10.814Z,54.30
2019-01-23T06:35:46.597Z,52.07
2019-01-23T06:36:22.310Z,56.20
2019-01-23T06:36:58.062Z,53.78
2019-01-23T06:37:33.488Z,53.77
2019-01-23T06:38:09.000Z,51.53
2019-01-23T06:38:44.594Z,50.87
2019-01-23T06:39:20.064Z,52.53
2019-01-23T06:39:55.770Z,48.83
2019-01-23T06:40:31.759Z,50.67
2019-01-23T06:41:07.237Z,53.27
2019-01-23T06:41:42.847Z,52.20
2019-01-23T06:42:18.372Z,53.43
2019-01-23T06:42:54.117Z,49.43
2019-01-23T06:43:29.851Z,51.55
2019-01-23T06:44:05.854Z,49.77
2019-01-23T06:44:41.748Z,53.27
2019-01-23T06:45:17.767Z,52.53
2019-01-23T06:45:53.468Z,56.40
2019-01-23T06:46:29.366Z,56.17
2019-01-23T06:47:04.815Z,54.97
2019-01-23T06:47:40.679Z,50.40
2019-01-23T06:48:16.173Z,50.53
2019-01-23T06:48:51.660Z,55.47
2019-01-23T06:49:30.014Z,49.50
2019-01-23T06:50:05.674Z,53.60
2019-01-23T06:50:41.460Z,51.50
2019-01-23T06:51:16.923Z,49.90
2019-01-23T06:51:52.353Z,50.63
2019-01-23T06:52:27.791Z,53.20
2019-01-23T06:53:03.244Z,53.47
2019-01-23T06:53:39.063Z,51.87
2019-01-23T06:54:14.621Z,56.83
2019-01-23T06:54:50.080Z,52.13
2019-01-23T06:55:25.802Z,55.47
2019-01-23T06:56:01.357Z,55.53
2019-01-23T06:56:36.976Z,58.47
2019-01-23T06:57:12.685Z,53.63
2019-01-23T06:57:48.299Z,54.37
2019-01-23T06:58:24.073Z,55.20
2019-01-23T06:58:59.837Z,53.80
2019-01-23T06:59:35.406Z,54.53
2019-01-23T07:00:17.445Z,55.20
2019-01-23T07:00:53.015Z,49.07
2019-01-23T07:01:28.447Z,53.07
2019-01-23T07:02:03.879Z,51.80
2019-01-23T07:02:39.799Z,50.80
2019-01-23T07:03:15.275Z,54.03
2019-01-23T07:03:50.719Z,50.53
2019-01-23T07:04:26.427Z,50.63
2019-01-23T07:05:01.902Z,49.23
2019-01-23T07:05:37.466Z,54.30
2019-01-23T07:06:13.398Z,57.23
2019-01-23T07:06:49.121Z,52.33
2019-01-23T07:07:24.605Z,53.33
2019-01-23T07:08:00.384Z,54.37
2019-01-23T07:08:35.872Z,53.90
2019-01-23T07:09:11.475Z,51.40
2019-01-23T07:09:47.009Z,57.97
2019-01-23T07:10:24.757Z,51.03
2019-01-23T07:11:00.291Z,51.13
2019-01-23T07:11:35.734Z,51.13
2019-01-23T07:12:11.539Z,52.87
2019-01-23T07:12:47.312Z,53.60
2019-01-23T07:13:22.743Z,54.97
2019-01-23T07:13:58.205Z,52.30
2019-01-23T07:14:34.050Z,51.77
2019-01-23T07:15:10.768Z,53.67
2019-01-23T07:15:46.349Z,53.57
2019-01-23T07:16:22.081Z,53.67
2019-01-23T07:16:57.768Z,54.33
2019-01-23T07:17:33.290Z,53.90
2019-01-23T07:18:08.782Z,49.33
2019-01-23T07:18:44.292Z,53.13
2019-01-23T07:19:19.762Z,52.23
2019-01-23T07:19:55.217Z,52.13
2019-01-23T07:20:30.654Z,55.90
2019-01-23T07:21:06.102Z,51.47
2019-01-23T07:21:41.562Z,52.63
2019-01-23T07:22:17.309Z,51.67
2019-01-23T07:22:53.030Z,58.77
2019-01-23T07:23:28.743Z,56.27
2019-01-23T07:24:04.562Z,49.70
2019-01-23T07:24:40.122Z,53.03
2019-01-23T07:25:15.820Z,51.80
2019-01-23T07:25:51.507Z,53.90
2019-01-23T07:26:27.014Z,57.87
2019-01-23T07:27:02.480Z,53.23
2019-01-23T07:27:37.976Z,52.67
2019-01-23T07:28:13.513Z,53.30
2019-01-23T07:28:49.519Z,49.47
2019-01-23T07:29:24.897Z,51.27
2019-01-23T07:30:00.326Z,52.10
2019-01-23T07:30:38.639Z,48.10
2019-01-23T07:31:14.190Z,53.10
2019-01-23T07:31:49.894Z,53.63
2019-01-23T07:32:25.623Z,55.85
2019-01-23T07:33:01.098Z,54.63
2019-01-23T07:33:36.552Z,49.33
2019-01-23T07:34:12.103Z,48.60
2019-01-23T07:34:47.559Z,53.20
2019-01-23T07:35:23.332Z,52.03
2019-01-23T07:35:58.760Z,52.60
2019-01-23T07:36:34.215Z,50.77
2019-01-23T07:37:09.641Z,53.53
2019-01-23T07:37:45.065Z,51.07
2019-01-23T07:38:20.911Z,49.20
2019-01-23T07:38:56.352Z,52.37
2019-01-23T07:39:32.128Z,53.23
2019-01-23T07:40:08.270Z,52.30
2019-01-23T07:40:43.974Z,52.47
2019-01-23T07:41:19.636Z,50.77